Henry, Indiana
Current Conditions -  °F | °C
As of 3:53 PM on Tuesday 25 Nov 2014 (Local Time) from KMIE Reporting Station
Overcast Overcast  
Wind Chill: 21°   Ceiling: 1500
Heat Index: 30°   Visibility: 10mi
Dew Point: 24°   Wind: 10mph
Humidity: 79%   Direction: 280°W
Pressure: 30.14"   Gusts: NA
Location:  39.9231°N, 85.3444°W
Report Text: KMIE 252053Z 28009KT 10SM OVC015 M01/M04 A3014 RMK AO2 SLP211 T10111044 53012
Loading
Personal Weather Stations






























Interactive Weather Map New forecast layout! Learn more

10-Day Weather Forecast

Advertisements
Track Severe Weather on mobile